Warning: Javascript must be enabled to use all the features on this page!


Page Loading - Please Wait...

Click to hideNews Bulletins

Peak Streamflow for the Nation

USGS 01139000 WELLS RIVER AT WELLS RIVER, VT

Orange County, Vermont
Hydrologic Unit Code 01080103
Latitude  44°09'01", Longitude  72°03'56" NAD27
Drainage area 98.4  square miles
Gage datum 505.53 feet above NGVD29
Output formats
Table
Graph
Tab-separated file
peakfq (watstore) format
Reselect output format
Water
Year
Date Gage
Height
(feet)
Stream-
flow
(cfs)
1941 1941-04-16 3.88 7735
1942 1942-06-15 5.88 1,9405
1943 1943-04-28 4.51 1,1205
1944 1943-11-09 5.05 1,4305
1945 1945-04-26 5.79 1,8805
1946 1946-03-09   1,4505
1947 1947-06-03 6.35 2,2205
1948 1948-04-01 5.00 1,4005
1949 1948-12-31   1,1005
1950 1950-04-21 6.04 2,0305
1951 1951-03-31 5.24 1,5505
1952 1952-06-02 8.12 3,2305
1953 1953-03-25   1,8005
1954 1954-04-11 4.96 1,3705
1955 1955-04-15 5.29 1,5805
1956 1956-05-27 5.30 1,5905
1957 1956-11-22 3.612 5705
1958 1958-04-22 5.68 1,8205
1959 1959-04-03 4.701 1,0505
1960 1959-11-28 5.95 1,9805
1961 1961-04-23 4.96 1,3705
1962 1962-04-08 5.57 1,7505
1963 1962-10-07 5.74 1,8505
1964 1964-04-15 5.142 1,4905
1965 1965-04-16 3.712 6205
1966 1966-03-25 4.62 1,1505
1967 1967-04-03 4.97 1,3305
1968 1968-03-24 5.35 1,5705
1969 1969-04-19 6.52 2,3205
1970 1970-04-25 5.39 1,5905
1971 1971-05-04 6.07 2,0405
1972 1972-05-05 7.03 2,9605
1973 1973-06-30 9.82 5,9705
1974 1973-12-21 6.82 2,7705
1975 1975-04-20 4.87 1,2605
1976 1976-04-01 7.12 3,0405
1977 1977-03-31 5.21 1,4805
1978 1978-01-09 5.861 1,3005
1979 1979-03-07 5.682 1,8105
1980 1980-04-10 4.90 1,2705
1981 1981-02-25 5.262 1,5105
1982 1981-10-28 7.32 3,2205
1983 1983-05-04 4.652 1,1105
1984 1984-06-07 8.68 4,6305
1985 1985-02-24 5.55 1,7205
1986 1986-03-31 5.23 1,4905
1987 1987-04-01 6.83 2,7705
1988 1987-10-04 5.10 1,4105
1989 1989-08-05 6.69 2,6405
1990 1990-07-05 6.13 2,1605
1991 1990-10-24 5.79 1,9005
1992 1992-04-24 5.012 1,3505
1993 1993-04-17 5.88 1,9705
1994 1994-04-16 5.91 2,0405
1995 1995-03-22 3.90 7185
1996 1996-01-20 7.52 3,5005
1997 1997-07-15 8.54 4,5605
1998 1998-03-31 5.73 1,8905
1999 1999-09-17 6.64 2,6605
2000 2000-04-04 5.25 1,5405
2001 2000-12-18 6.87 3,0105
2002 2002-04-14 5.69 2,0005
2003 2003-03-30 4.82 1,2905
2004 2003-10-29 5.65 1,9605
2005 2005-04-03 5.30 1,6705
2006 2006-01-18 5.58 1,9105
2007 2007-03-15 5.101 1,3002,5
2008 2008-04-29 5.90 2,2205
2009 2009-04-04 5.14 1,6705
2010 2010-03-23 5.12 1,6505
2011 2011-08-28 9.03 5,1705
2012 2012-04-23 4.35 1,1005
2013 2013-06-28 4.91 1,3605
2014 2014-04-16 7.54 3,6405
2015 2015-07-20 6.30 2,5005
2016 2016-02-25 5.97 2,2205
2017 2017-07-01 7.61 3,7105
2018 2017-10-25 4.80 1,3105
2019 2019-04-15 7.21 3,3205
2020 2020-04-14 5.66 1,9705
?
  Peak Gage-Height Qualification Codes.
?
  Peak Streamflow Qualification Codes.